createdAt,value
2017-05-06T00:02:09.773Z,100648.20
2017-05-06T00:04:37.219Z,100645.47
2017-05-06T00:07:04.666Z,100643.47
2017-05-06T00:09:32.089Z,100646.56
2017-05-06T00:11:59.537Z,100631.48
2017-05-06T00:14:26.969Z,100625.38
2017-05-06T00:16:54.397Z,100623.37
2017-05-06T00:19:21.883Z,100617.89
2017-05-06T00:21:49.297Z,100622.00
2017-05-06T00:24:16.734Z,100616.95
2017-05-06T00:26:44.170Z,100613.36
2017-05-06T00:29:11.598Z,100605.12
2017-05-06T00:31:39.027Z,100606.83
2017-05-06T00:34:06.480Z,100608.62
2017-05-06T00:36:33.918Z,100593.02
2017-05-06T00:39:01.334Z,100603.66
2017-05-06T00:41:28.778Z,100596.48
2017-05-06T00:43:56.198Z,100600.80
2017-05-06T00:46:23.854Z,100605.29
2017-05-06T00:48:51.317Z,100597.83
2017-05-06T00:51:18.749Z,100598.23
2017-05-06T00:53:46.169Z,100599.59
2017-05-06T00:56:13.601Z,100586.53
2017-05-06T00:58:41.041Z,100597.58
2017-05-06T01:01:08.469Z,100594.92
2017-05-06T01:03:35.924Z,100589.13
2017-05-06T01:06:03.346Z,100598.06
2017-05-06T01:08:30.769Z,100589.31
2017-05-06T01:10:58.223Z,100589.08
2017-05-06T01:13:25.637Z,100583.06
2017-05-06T01:15:53.064Z,100573.77
2017-05-06T01:18:20.509Z,100571.76
2017-05-06T01:20:47.946Z,100567.41
2017-05-06T01:23:15.373Z,100561.78
2017-05-06T01:25:42.813Z,100557.05
2017-05-06T01:28:10.241Z,100565.44
2017-05-06T01:30:37.655Z,100560.49
2017-05-06T01:33:05.090Z,100552.45
2017-05-06T01:35:32.509Z,100559.37
2017-05-06T01:37:59.930Z,100558.11
2017-05-06T01:40:27.381Z,100547.77
2017-05-06T01:42:54.798Z,100552.27
2017-05-06T01:45:22.495Z,100546.80
2017-05-06T01:47:49.933Z,100548.14
2017-05-06T01:50:17.349Z,100549.48
2017-05-06T01:52:44.777Z,100540.34
2017-05-06T01:55:12.234Z,100545.78
2017-05-06T01:57:39.675Z,100547.34
2017-05-06T02:00:07.098Z,100546.27
2017-05-06T02:02:34.539Z,100543.73
2017-05-06T02:05:01.978Z,100543.93
2017-05-06T02:07:29.408Z,100548.37
2017-05-06T02:09:56.854Z,100541.63
2017-05-06T02:12:24.270Z,100545.70
2017-05-06T02:14:51.691Z,100534.95
2017-05-06T02:17:19.134Z,100536.09
2017-05-06T02:19:46.586Z,100534.63
2017-05-06T02:22:14.009Z,100526.72
2017-05-06T02:24:41.453Z,100532.06
2017-05-06T02:27:08.874Z,100523.73
2017-05-06T02:29:36.285Z,100526.66
2017-05-06T02:32:03.733Z,100528.45
2017-05-06T02:34:31.150Z,100526.53
2017-05-06T02:36:58.577Z,100526.41
2017-05-06T02:39:26.020Z,100525.23
2017-05-06T02:41:53.439Z,100524.68
2017-05-06T02:44:20.865Z,100515.02
2017-05-06T02:46:49.216Z,100517.20
2017-05-06T02:49:16.633Z,100518.34
2017-05-06T02:51:44.054Z,100517.98
2017-05-06T02:54:11.506Z,100511.56
2017-05-06T02:56:38.935Z,100510.03
2017-05-06T02:59:06.351Z,100501.34
2017-05-06T03:01:33.798Z,100507.33
2017-05-06T03:04:01.217Z,100510.12
2017-05-06T03:06:28.650Z,100506.41
2017-05-06T03:08:56.095Z,100506.08
2017-05-06T03:11:23.514Z,100502.80
2017-05-06T03:13:50.926Z,100499.17
2017-05-06T03:16:18.361Z,100502.23
2017-05-06T03:18:45.785Z,100499.89
2017-05-06T03:21:13.199Z,100500.70
2017-05-06T03:23:40.649Z,100496.04
2017-05-06T03:26:08.075Z,100490.48
2017-05-06T03:28:35.493Z,100503.58
2017-05-06T03:31:02.934Z,100495.15
2017-05-06T03:33:30.369Z,100492.70
2017-05-06T03:35:57.782Z,100488.05
2017-05-06T03:38:25.247Z,100489.61
2017-05-06T03:40:52.662Z,100488.14
2017-05-06T03:43:20.088Z,100485.08
2017-05-06T03:45:47.544Z,100485.37
2017-05-06T03:48:14.980Z,100484.09
2017-05-06T03:50:42.401Z,100488.39
2017-05-06T03:53:09.838Z,100489.00
2017-05-06T03:55:37.285Z,100477.84
2017-05-06T03:58:04.719Z,100475.77
2017-05-06T04:00:32.175Z,100476.80
2017-05-06T04:02:59.600Z,100481.94
2017-05-06T04:05:27.034Z,100480.57
2017-05-06T04:07:54.470Z,100474.69
2017-05-06T04:10:21.886Z,100474.36
2017-05-06T04:12:49.314Z,100468.38
2017-05-06T04:15:16.769Z,100475.95
2017-05-06T04:17:44.198Z,100464.42
2017-05-06T04:20:11.636Z,100466.11
2017-05-06T04:22:39.925Z,100466.83
2017-05-06T04:25:07.362Z,100470.73
2017-05-06T04:27:35.486Z,100469.08
2017-05-06T04:30:02.945Z,100463.84
2017-05-06T04:32:30.369Z,100468.92
2017-05-06T04:34:57.818Z,100466.30
2017-05-06T04:37:25.290Z,100458.05
2017-05-06T04:39:52.729Z,100455.25
2017-05-06T04:42:20.159Z,100450.64
2017-05-06T04:44:47.615Z,100448.27
2017-05-06T04:47:15.041Z,100452.20
2017-05-06T04:49:42.478Z,100450.22
2017-05-06T04:52:09.922Z,100443.13
2017-05-06T04:54:37.356Z,100442.84
2017-05-06T04:57:04.797Z,100443.00
2017-05-06T04:59:32.265Z,100435.91
2017-05-06T05:01:59.694Z,100429.75
2017-05-06T05:04:27.123Z,100430.39
2017-05-06T05:06:54.578Z,100431.06
2017-05-06T05:09:22.873Z,100437.41
2017-05-06T05:11:50.298Z,100427.14
2017-05-06T05:14:17.741Z,100435.36
2017-05-06T05:16:45.165Z,100432.67
2017-05-06T05:19:12.597Z,100429.53
2017-05-06T05:21:40.057Z,100426.00
2017-05-06T05:24:07.485Z,100429.59
2017-05-06T05:26:34.921Z,100427.81
2017-05-06T05:29:02.378Z,100423.42
2017-05-06T05:31:29.809Z,100423.84
2017-05-06T05:33:57.233Z,100428.63
2017-05-06T05:36:24.690Z,100426.54
2017-05-06T05:38:52.113Z,100427.92
2017-05-06T05:41:19.550Z,100423.93
2017-05-06T05:43:47.006Z,100426.07
2017-05-06T05:46:14.438Z,100424.17
2017-05-06T05:48:41.868Z,100426.80
2017-05-06T05:51:09.309Z,100425.12
2017-05-06T05:53:36.742Z,100425.44
2017-05-06T05:56:04.165Z,100430.37
2017-05-06T05:58:31.617Z,100420.27
2017-05-06T06:00:59.049Z,100428.05
2017-05-06T06:03:26.482Z,100424.58
2017-05-06T06:05:53.934Z,100421.19
2017-05-06T06:08:21.367Z,100420.37
2017-05-06T06:10:48.798Z,100427.98
2017-05-06T06:13:16.255Z,100425.62
2017-05-06T06:15:43.686Z,100419.94
2017-05-06T06:18:11.785Z,100417.27
2017-05-06T06:20:39.244Z,100418.19
2017-05-06T06:23:06.686Z,100415.23
2017-05-06T06:25:34.109Z,100416.29
2017-05-06T06:28:01.558Z,100411.30
2017-05-06T06:30:29.010Z,100406.44
2017-05-06T06:32:56.449Z,100407.88
2017-05-06T06:35:23.898Z,100410.08
2017-05-06T06:37:51.330Z,100411.20
2017-05-06T06:40:18.778Z,100408.34
2017-05-06T06:42:46.233Z,100405.59
2017-05-06T06:45:13.665Z,100409.88
2017-05-06T06:47:41.102Z,100402.91
2017-05-06T06:50:08.549Z,100399.20
2017-05-06T06:52:35.982Z,100397.99
2017-05-06T06:55:03.418Z,100400.52
2017-05-06T06:57:30.874Z,100402.05
2017-05-06T06:59:58.311Z,100389.05
2017-05-06T07:02:25.758Z,100391.20
2017-05-06T07:04:53.216Z,100389.70
2017-05-06T07:07:20.650Z,100383.41
2017-05-06T07:09:48.082Z,100382.00
2017-05-06T07:12:15.532Z,100385.95
2017-05-06T07:14:43.963Z,100382.72
2017-05-06T07:17:11.439Z,100378.14
2017-05-06T07:19:38.876Z,100379.89
2017-05-06T07:22:06.305Z,100377.00
2017-05-06T07:24:33.887Z,100381.25
2017-05-06T07:27:01.325Z,100373.66
2017-05-06T07:29:28.746Z,100378.88
2017-05-06T07:31:56.203Z,100377.85
2017-05-06T07:34:23.639Z,100375.55
2017-05-06T07:36:51.075Z,100374.97
2017-05-06T07:39:18.533Z,100374.34
2017-05-06T07:41:45.965Z,100372.27
2017-05-06T07:44:13.401Z,100366.98
2017-05-06T07:46:41.761Z,100362.95
2017-05-06T07:49:09.200Z,100359.46
2017-05-06T07:51:36.644Z,100351.63
2017-05-06T07:54:04.127Z,100348.25
2017-05-06T07:56:33.514Z,100335.95
2017-05-06T07:59:00.962Z,100338.28
2017-05-06T08:01:28.434Z,100335.80
2017-05-06T08:03:55.871Z,100331.35
2017-05-06T08:06:23.313Z,100329.52
2017-05-06T08:08:50.741Z,100325.33
2017-05-06T08:11:18.165Z,100318.84
2017-05-06T08:13:45.599Z,100316.88
2017-05-06T08:16:13.030Z,100320.72
2017-05-06T08:18:40.482Z,100324.45
2017-05-06T08:21:07.918Z,100327.33
2017-05-06T08:23:35.349Z,100310.17
2017-05-06T08:26:02.782Z,100308.48
2017-05-06T08:28:30.217Z,100307.44
2017-05-06T08:30:57.649Z,100307.12
2017-05-06T08:33:25.086Z,100304.06
2017-05-06T08:35:52.522Z,100306.80
2017-05-06T08:38:19.973Z,100304.95
2017-05-06T08:40:47.422Z,100295.13
2017-05-06T08:43:14.858Z,100281.56
2017-05-06T08:45:42.319Z,100285.95
2017-05-06T08:48:09.755Z,100265.46
2017-05-06T08:50:38.194Z,100262.38
2017-05-06T08:53:05.643Z,100250.91
2017-05-06T08:55:33.083Z,100259.69
2017-05-06T08:58:00.526Z,100254.08
2017-05-06T09:00:27.962Z,100246.09
2017-05-06T09:02:55.401Z,100238.96
2017-05-06T09:05:22.843Z,100239.59
2017-05-06T09:07:50.290Z,100227.88
2017-05-06T09:10:17.725Z,100219.02
2017-05-06T09:12:45.157Z,100222.33
2017-05-06T09:15:12.589Z,100221.18
2017-05-06T09:17:40.012Z,100209.38
2017-05-06T09:20:07.437Z,100210.34
2017-05-06T09:22:34.865Z,100200.97
2017-05-06T09:27:29.014Z,100198.08
2017-05-06T09:29:56.438Z,100186.11
2017-05-06T09:32:23.871Z,100193.98
2017-05-06T09:34:51.306Z,100193.36
2017-05-06T09:37:18.742Z,100189.36
2017-05-06T09:39:46.173Z,100182.07
2017-05-06T09:42:13.622Z,100172.61
2017-05-06T09:44:41.066Z,100171.12
2017-05-06T09:47:08.498Z,100167.36
2017-05-06T09:49:36.043Z,100174.95
2017-05-06T09:52:03.466Z,100169.71
2017-05-06T09:54:30.890Z,100158.30
2017-05-06T09:56:58.321Z,100150.30
2017-05-06T09:59:25.754Z,100140.86
2017-05-06T10:01:53.182Z,100138.13
2017-05-06T10:04:20.609Z,100128.04
2017-05-06T10:06:48.046Z,100123.14
2017-05-06T10:09:15.469Z,100120.62
2017-05-06T10:11:42.942Z,100118.54
2017-05-06T10:17:02.787Z,100110.02
2017-05-06T10:19:30.230Z,100098.97
2017-05-06T10:22:03.673Z,100095.89
2017-05-06T10:24:31.094Z,100082.53
2017-05-06T10:26:58.538Z,100085.78
2017-05-06T10:29:25.991Z,100078.19
2017-05-06T10:31:53.425Z,100072.62
2017-05-06T10:34:20.844Z,100064.55
2017-05-06T10:36:48.266Z,100053.37
2017-05-06T10:39:15.686Z,100048.11
2017-05-06T10:41:43.106Z,100048.06
2017-05-06T10:44:23.202Z,100040.35
2017-05-06T10:46:50.621Z,100041.88
2017-05-06T10:49:18.039Z,100036.41
2017-05-06T10:51:45.454Z,100037.66
2017-05-06T10:54:12.886Z,100026.32
2017-05-06T10:56:40.309Z,100016.50
2017-05-06T10:59:07.764Z,100017.49
2017-05-06T11:01:35.227Z,100011.64
2017-05-06T11:04:02.653Z,100005.18
2017-05-06T11:06:30.153Z,100002.53
2017-05-06T11:08:57.578Z,99987.97
2017-05-06T11:11:25.047Z,99990.31
2017-05-06T11:13:52.527Z,99979.17
2017-05-06T11:16:19.950Z,99979.65
2017-05-06T11:18:47.437Z,99980.84
2017-05-06T11:21:14.874Z,99982.23
2017-05-06T11:23:42.349Z,99976.47
2017-05-06T11:26:09.788Z,99979.78
2017-05-06T11:28:37.218Z,99972.81
2017-05-06T11:31:04.684Z,99966.02
2017-05-06T11:33:32.103Z,99972.56
2017-05-06T11:36:11.787Z,99963.53
2017-05-06T11:38:39.209Z,99960.70
2017-05-06T11:41:06.702Z,99955.85
2017-05-06T11:43:34.119Z,99954.41
2017-05-06T11:46:01.539Z,99944.21
2017-05-06T11:48:28.953Z,99941.02
2017-05-06T11:50:56.374Z,99945.80
2017-05-06T11:53:23.793Z,99942.48
2017-05-06T11:55:51.231Z,99941.59
2017-05-06T11:58:18.651Z,99929.34
2017-05-06T12:00:46.067Z,99924.46
2017-05-06T12:03:13.491Z,99916.98
2017-05-06T12:05:40.938Z,99913.67
2017-05-06T12:08:21.513Z,99911.70
2017-05-06T12:10:48.959Z,99903.29
2017-05-06T12:13:16.373Z,99896.95
2017-05-06T12:15:43.790Z,99899.38
2017-05-06T12:18:11.241Z,99892.41
2017-05-06T12:20:38.661Z,99893.13
2017-05-06T12:23:06.086Z,99882.73
2017-05-06T12:25:33.533Z,99877.69
2017-05-06T12:28:00.946Z,99886.37
2017-05-06T12:30:28.369Z,99884.40
2017-05-06T12:32:55.809Z,99888.50
2017-05-06T12:35:23.230Z,99883.84
2017-05-06T12:37:50.641Z,99883.88
2017-05-06T12:40:18.081Z,99876.23
2017-05-06T12:42:45.494Z,99868.91
2017-05-06T12:45:12.909Z,99868.27
2017-05-06T12:47:40.364Z,99869.59
2017-05-06T12:50:07.785Z,99860.70
2017-05-06T12:52:35.231Z,99857.73
2017-05-06T12:55:02.667Z,99858.73
2017-05-06T12:57:30.082Z,99864.62
2017-05-06T12:59:57.511Z,99857.81
2017-05-06T13:02:24.965Z,99860.41
2017-05-06T13:04:52.377Z,99854.72
2017-05-06T13:07:19.814Z,99863.54
2017-05-06T13:09:47.262Z,99862.55
2017-05-06T13:12:14.707Z,99860.89
2017-05-06T13:14:55.118Z,99859.23
2017-05-06T13:17:22.546Z,99856.83
2017-05-06T13:19:49.965Z,99850.35
2017-05-06T13:22:17.398Z,99857.23
2017-05-06T13:24:44.824Z,99847.54
2017-05-06T13:27:12.240Z,99844.88
2017-05-06T13:29:39.658Z,99841.89
2017-05-06T13:32:07.109Z,99840.95
2017-05-06T13:34:34.594Z,99843.34
2017-05-06T13:37:02.021Z,99843.08
2017-05-06T13:39:29.441Z,99841.03
2017-05-06T13:41:56.911Z,99831.28
2017-05-06T13:44:24.325Z,99837.09
2017-05-06T13:46:51.770Z,99842.74
2017-05-06T13:49:19.253Z,99839.27
2017-05-06T13:51:46.677Z,99835.64
2017-05-06T13:54:14.145Z,99840.18
2017-05-06T13:56:41.606Z,99832.09
2017-05-06T13:59:09.090Z,99844.02
2017-05-06T14:01:36.541Z,99833.02
2017-05-06T14:04:04.045Z,99830.12
2017-05-06T14:06:31.457Z,99832.55
2017-05-06T14:08:58.878Z,99831.23
2017-05-06T14:11:26.302Z,99825.27
2017-05-06T14:13:53.724Z,99832.98
2017-05-06T14:16:21.145Z,99830.61
2017-05-06T14:18:48.558Z,99829.88
2017-05-06T14:21:15.985Z,99818.69
2017-05-06T14:23:43.408Z,99827.76
2017-05-06T14:26:10.838Z,99831.56
2017-05-06T14:28:38.273Z,99831.73
2017-05-06T14:31:05.694Z,99830.72
2017-05-06T14:33:33.110Z,99831.80
2017-05-06T14:36:00.525Z,99828.13
2017-05-06T14:38:27.943Z,99829.75
2017-05-06T14:40:55.354Z,99835.30
2017-05-06T14:43:22.774Z,99829.80
2017-05-06T14:45:50.190Z,99832.70
2017-05-06T14:48:17.609Z,99836.80
2017-05-06T14:50:45.026Z,99833.22
2017-05-06T14:53:12.441Z,99836.65
2017-05-06T14:55:39.857Z,99835.07
2017-05-06T14:58:07.278Z,99830.53
2017-05-06T15:00:34.694Z,99832.39
2017-05-06T15:03:02.106Z,99827.37
2017-05-06T15:05:29.525Z,99825.09
2017-05-06T15:07:57.038Z,99827.84
2017-05-06T15:10:24.541Z,99823.61
2017-05-06T15:12:51.974Z,99818.91
2017-05-06T15:15:19.405Z,99828.41
2017-05-06T15:17:46.836Z,99823.11
2017-05-06T15:20:27.322Z,99822.07
2017-05-06T15:22:54.764Z,99821.57
2017-05-06T15:25:22.213Z,99817.63
2017-05-06T15:27:49.662Z,99818.14
2017-05-06T15:30:29.480Z,99815.08
2017-05-06T15:32:56.942Z,99819.75
2017-05-06T15:35:24.478Z,99812.89
2017-05-06T15:37:51.917Z,99811.34
2017-05-06T15:40:19.374Z,99815.55
2017-05-06T15:42:46.814Z,99814.18
2017-05-06T15:45:15.181Z,99807.75
2017-05-06T15:47:43.154Z,99809.49
2017-05-06T15:50:10.574Z,99803.25
2017-05-06T15:52:38.015Z,99799.92
2017-05-06T15:55:05.462Z,99807.36
2017-05-06T15:57:33.084Z,99806.55
2017-05-06T16:00:00.588Z,99796.90
2017-05-06T16:02:28.044Z,99797.85
2017-05-06T16:05:01.309Z,99795.67
2017-05-06T16:07:28.806Z,99797.13
2017-05-06T16:09:56.242Z,99794.30
2017-05-06T16:12:23.902Z,99802.06
2017-05-06T16:14:51.410Z,99803.73
2017-05-06T16:17:18.859Z,99801.02
2017-05-06T16:19:46.533Z,99795.94
2017-05-06T16:22:13.979Z,99802.78
2017-05-06T16:24:41.414Z,99796.63
2017-05-06T16:27:08.862Z,99804.00
2017-05-06T16:29:36.314Z,99803.02
2017-05-06T16:32:03.753Z,99801.59
2017-05-06T16:34:38.564Z,99806.46
2017-05-06T16:37:06.017Z,99803.22
2017-05-06T16:39:33.866Z,99803.17
2017-05-06T16:42:01.301Z,99804.05
2017-05-06T16:44:28.742Z,99805.55
2017-05-06T16:46:56.184Z,99795.84
2017-05-06T16:49:23.602Z,99799.80
2017-05-06T16:51:51.038Z,99799.19
2017-05-06T16:54:18.457Z,99806.92
2017-05-06T16:56:45.891Z,99805.45
2017-05-06T16:59:13.351Z,99799.25
2017-05-06T17:01:40.811Z,99801.96
2017-05-06T17:04:08.217Z,99803.87
2017-05-06T17:06:35.775Z,99804.09
2017-05-06T17:09:03.202Z,99809.32
2017-05-06T17:11:30.619Z,99806.36
2017-05-06T17:13:58.035Z,99806.59
2017-05-06T17:16:25.467Z,99799.27
2017-05-06T17:18:52.946Z,99802.69
2017-05-06T17:21:20.527Z,99801.64
2017-05-06T17:23:47.951Z,99802.11
2017-05-06T17:26:15.385Z,99802.20
2017-05-06T17:28:42.802Z,99801.99
2017-05-06T17:31:10.228Z,99807.80
2017-05-06T17:33:38.573Z,99804.23
2017-05-06T17:36:05.989Z,99809.92
2017-05-06T17:38:33.410Z,99810.30
2017-05-06T17:41:00.915Z,99808.41
2017-05-06T17:43:28.349Z,99814.36
2017-05-06T17:45:55.761Z,99814.02
2017-05-06T17:48:23.181Z,99815.50
2017-05-06T17:50:50.621Z,99814.62
2017-05-06T17:53:18.046Z,99811.63
2017-05-06T17:55:45.461Z,99818.37
2017-05-06T17:58:12.881Z,99814.28
2017-05-06T18:00:41.225Z,99813.12
2017-05-06T18:03:08.644Z,99808.98
2017-05-06T18:05:36.071Z,99819.52
2017-05-06T18:08:03.494Z,99811.11
2017-05-06T18:10:34.327Z,99812.16
2017-05-06T18:13:01.786Z,99814.02
2017-05-06T18:15:41.522Z,99807.95
2017-05-06T18:18:08.943Z,99814.39
2017-05-06T18:20:36.361Z,99818.59
2017-05-06T18:23:03.777Z,99823.52
2017-05-06T18:25:31.203Z,99818.81
2017-05-06T18:27:58.618Z,99819.57
2017-05-06T18:30:26.041Z,99823.94
2017-05-06T18:32:55.397Z,99822.73
2017-05-06T18:35:22.822Z,99818.45
2017-05-06T18:37:50.234Z,99822.81
2017-05-06T18:40:17.649Z,99830.91
2017-05-06T18:42:45.070Z,99829.28
2017-05-06T18:45:12.490Z,99829.84
2017-05-06T18:47:39.935Z,99843.33
2017-05-06T18:50:07.362Z,99851.83
2017-05-06T18:52:34.782Z,99851.27
2017-05-06T18:55:02.201Z,99854.20
2017-05-06T18:57:29.621Z,99859.50
2017-05-06T18:59:57.043Z,99865.89
2017-05-06T19:02:24.458Z,99873.11
2017-05-06T19:04:51.893Z,99874.62
2017-05-06T19:07:19.319Z,99875.88
2017-05-06T19:09:46.737Z,99881.70
2017-05-06T19:12:14.166Z,99884.89
2017-05-06T19:14:41.581Z,99888.25
2017-05-06T19:17:09.005Z,99892.68
2017-05-06T19:19:36.423Z,99894.75
2017-05-06T19:22:03.841Z,99903.66
2017-05-06T19:24:31.264Z,99904.89
2017-05-06T19:26:58.713Z,99909.18
2017-05-06T19:29:26.170Z,99913.09
2017-05-06T19:31:53.605Z,99920.15
2017-05-06T19:34:21.122Z,99927.77
2017-05-06T19:36:49.566Z,99929.83
2017-05-06T19:39:17.022Z,99944.55
2017-05-06T19:41:44.442Z,99944.52
2017-05-06T19:44:12.513Z,99941.30
2017-05-06T19:46:39.928Z,99945.30
2017-05-06T19:49:07.537Z,99939.20
2017-05-06T19:51:35.187Z,99949.30
2017-05-06T19:54:04.553Z,99945.68
2017-05-06T19:56:31.974Z,99951.92
2017-05-06T19:58:59.407Z,99959.27
2017-05-06T20:01:26.834Z,99952.31
2017-05-06T20:03:54.314Z,99958.94
2017-05-06T20:06:21.765Z,99953.55
2017-05-06T20:08:49.203Z,99952.56
2017-05-06T20:11:16.634Z,99957.12
2017-05-06T20:13:44.054Z,99964.73
2017-05-06T20:16:11.478Z,99962.49
2017-05-06T20:18:38.918Z,99967.08
2017-05-06T20:21:06.350Z,99963.87
2017-05-06T20:23:33.779Z,99967.05
2017-05-06T20:26:01.210Z,99975.76
2017-05-06T20:28:30.594Z,99979.48
2017-05-06T20:30:58.036Z,99979.07
2017-05-06T20:33:25.461Z,99986.11
2017-05-06T20:35:52.919Z,99983.19
2017-05-06T20:38:23.494Z,99994.93
2017-05-06T20:40:50.927Z,99991.63
2017-05-06T20:43:18.357Z,99997.14
2017-05-06T20:45:45.798Z,100003.36
2017-05-06T20:48:13.234Z,100006.53
2017-05-06T20:50:40.661Z,100002.64
2017-05-06T20:53:08.086Z,100004.70
2017-05-06T20:55:35.820Z,100006.09
2017-05-06T20:58:03.297Z,100011.48
2017-05-06T21:00:30.813Z,100001.20
2017-05-06T21:02:58.290Z,100006.17
2017-05-06T21:05:25.894Z,100002.97
2017-05-06T21:07:53.331Z,100007.67
2017-05-06T21:10:20.852Z,100008.75
2017-05-06T21:12:48.418Z,100013.01
2017-05-06T21:15:15.939Z,100012.44
2017-05-06T21:17:43.614Z,100017.39
2017-05-06T21:20:11.194Z,100018.75
2017-05-06T21:22:38.652Z,100021.50
2017-05-06T21:25:06.106Z,100025.75
2017-05-06T21:27:34.053Z,100026.72
2017-05-06T21:30:01.700Z,100022.80
2017-05-06T21:32:29.482Z,100020.55
2017-05-06T21:34:56.926Z,100022.33
2017-05-06T21:37:24.437Z,100023.42
2017-05-06T21:39:51.866Z,100024.52
2017-05-06T21:42:19.392Z,100028.64
2017-05-06T21:44:47.889Z,100023.08
2017-05-06T21:47:15.365Z,100028.32
2017-05-06T21:49:42.810Z,100031.06
2017-05-06T21:52:10.278Z,100034.95
2017-05-06T21:54:37.717Z,100030.61
2017-05-06T21:57:05.186Z,100025.05
2017-05-06T21:59:32.715Z,100034.57
2017-05-06T22:02:00.222Z,100034.98
2017-05-06T22:04:27.659Z,100034.41
2017-05-06T22:06:55.203Z,100035.09
2017-05-06T22:09:22.644Z,100040.04
2017-05-06T22:11:50.082Z,100040.42
2017-05-06T22:14:18.453Z,100040.52
2017-05-06T22:16:45.962Z,100044.13
2017-05-06T22:19:13.411Z,100045.18
2017-05-06T22:21:40.862Z,100048.45
2017-05-06T22:24:08.297Z,100050.64
2017-05-06T22:26:35.726Z,100049.80
2017-05-06T22:29:04.215Z,100057.65
2017-05-06T22:31:31.650Z,100057.20
2017-05-06T22:33:59.126Z,100057.16
2017-05-06T22:36:26.570Z,100060.34
2017-05-06T22:38:54.001Z,100055.91
2017-05-06T22:41:21.439Z,100059.29
2017-05-06T22:43:48.894Z,100063.51
2017-05-06T22:46:16.324Z,100058.14
2017-05-06T22:48:43.762Z,100060.27
2017-05-06T22:51:11.374Z,100065.16
2017-05-06T22:53:38.805Z,100065.59
2017-05-06T22:56:06.247Z,100067.42
2017-05-06T22:58:33.698Z,100070.23
2017-05-06T23:01:01.129Z,100067.20
2017-05-06T23:03:28.566Z,100070.80
2017-05-06T23:05:56.062Z,100067.36
2017-05-06T23:08:23.496Z,100077.47
2017-05-06T23:10:50.926Z,100074.28
2017-05-06T23:13:18.374Z,100080.36
2017-05-06T23:15:45.813Z,100078.69
2017-05-06T23:18:13.257Z,100077.02
2017-05-06T23:20:40.712Z,100081.42
2017-05-06T23:23:09.091Z,100079.75
2017-05-06T23:25:36.526Z,100082.35
2017-05-06T23:28:03.970Z,100083.45
2017-05-06T23:30:31.405Z,100080.81
2017-05-06T23:33:00.770Z,100087.44
2017-05-06T23:35:28.227Z,100087.02
2017-05-06T23:37:55.674Z,100093.52
2017-05-06T23:40:23.106Z,100095.60
2017-05-06T23:42:50.562Z,100087.27
2017-05-06T23:45:17.989Z,100097.08
2017-05-06T23:47:45.425Z,100089.58
2017-05-06T23:50:12.877Z,100083.84
2017-05-06T23:52:40.316Z,100095.33
2017-05-06T23:55:07.741Z,100090.72
2017-05-06T23:57:35.201Z,100095.25
